sensor_id;sensor_type;location;lat;lon;timestamp;P1;durP1;ratioP1;P2;durP2;ratioP2
11054;SDS011;5580;50.106;8.702;2022-07-10T00:00:28;5.63;;;4.43;;
11054;SDS011;5580;50.106;8.702;2022-07-10T00:02:55;8.97;;;4.60;;
11054;SDS011;5580;50.106;8.702;2022-07-10T00:05:21;7.83;;;4.37;;
11054;SDS011;5580;50.106;8.702;2022-07-10T00:07:48;6.37;;;4.33;;
11054;SDS011;5580;50.106;8.702;2022-07-10T00:10:15;9.00;;;4.50;;
11054;SDS011;5580;50.106;8.702;2022-07-10T00:12:41;8.43;;;4.53;;
11054;SDS011;5580;50.106;8.702;2022-07-10T00:15:07;8.77;;;4.60;;
11054;SDS011;5580;50.106;8.702;2022-07-10T00:17:33;5.10;;;4.10;;
11054;SDS011;5580;50.106;8.702;2022-07-10T00:20:00;9.57;;;4.50;;
11054;SDS011;5580;50.106;8.702;2022-07-10T00:22:26;9.87;;;4.73;;
11054;SDS011;5580;50.106;8.702;2022-07-10T00:24:52;6.93;;;4.20;;
11054;SDS011;5580;50.106;8.702;2022-07-10T00:27:17;6.67;;;4.50;;
11054;SDS011;5580;50.106;8.702;2022-07-10T00:29:43;8.03;;;4.20;;
11054;SDS011;5580;50.106;8.702;2022-07-10T00:32:09;7.70;;;4.17;;
11054;SDS011;5580;50.106;8.702;2022-07-10T00:34:35;7.90;;;4.20;;
11054;SDS011;5580;50.106;8.702;2022-07-10T00:37:01;7.90;;;4.03;;
11054;SDS011;5580;50.106;8.702;2022-07-10T00:39:27;4.93;;;3.63;;
11054;SDS011;5580;50.106;8.702;2022-07-10T00:41:53;6.87;;;3.70;;
11054;SDS011;5580;50.106;8.702;2022-07-10T00:44:18;7.13;;;4.07;;
11054;SDS011;5580;50.106;8.702;2022-07-10T00:46:44;8.73;;;3.80;;
11054;SDS011;5580;50.106;8.702;2022-07-10T00:49:09;6.67;;;3.40;;
11054;SDS011;5580;50.106;8.702;2022-07-10T00:51:36;6.57;;;3.30;;
11054;SDS011;5580;50.106;8.702;2022-07-10T00:54:02;7.40;;;3.50;;
11054;SDS011;5580;50.106;8.702;2022-07-10T00:56:29;7.53;;;3.50;;
11054;SDS011;5580;50.106;8.702;2022-07-10T00:58:55;6.03;;;3.60;;
11054;SDS011;5580;50.106;8.702;2022-07-10T01:01:22;5.90;;;3.43;;
11054;SDS011;5580;50.106;8.702;2022-07-10T01:03:48;7.30;;;3.60;;
11054;SDS011;5580;50.106;8.702;2022-07-10T01:06:14;4.97;;;3.10;;
11054;SDS011;5580;50.106;8.702;2022-07-10T01:08:41;6.73;;;3.13;;
11054;SDS011;5580;50.106;8.702;2022-07-10T01:11:08;7.03;;;3.20;;
11054;SDS011;5580;50.106;8.702;2022-07-10T01:13:35;5.13;;;3.40;;
11054;SDS011;5580;50.106;8.702;2022-07-10T01:16:01;6.60;;;3.33;;
11054;SDS011;5580;50.106;8.702;2022-07-10T01:18:27;6.43;;;3.30;;
11054;SDS011;5580;50.106;8.702;2022-07-10T01:20:53;8.33;;;3.50;;
11054;SDS011;5580;50.106;8.702;2022-07-10T01:23:22;7.23;;;3.23;;
11054;SDS011;5580;50.106;8.702;2022-07-10T01:25:49;4.50;;;2.77;;
11054;SDS011;5580;50.106;8.702;2022-07-10T01:28:19;4.67;;;3.20;;
11054;SDS011;5580;50.106;8.702;2022-07-10T01:30:46;4.60;;;3.17;;
11054;SDS011;5580;50.106;8.702;2022-07-10T01:33:12;5.30;;;3.00;;
11054;SDS011;5580;50.106;8.702;2022-07-10T01:35:38;6.10;;;3.40;;
11054;SDS011;5580;50.106;8.702;2022-07-10T01:38:05;6.13;;;3.20;;
11054;SDS011;5580;50.106;8.702;2022-07-10T01:40:31;7.53;;;2.77;;
11054;SDS011;5580;50.106;8.702;2022-07-10T01:42:57;5.37;;;3.13;;
11054;SDS011;5580;50.106;8.702;2022-07-10T01:45:23;6.50;;;3.30;;
11054;SDS011;5580;50.106;8.702;2022-07-10T01:47:49;8.27;;;3.33;;
11054;SDS011;5580;50.106;8.702;2022-07-10T01:50:15;7.40;;;3.10;;
11054;SDS011;5580;50.106;8.702;2022-07-10T01:52:41;6.13;;;3.20;;
11054;SDS011;5580;50.106;8.702;2022-07-10T01:55:06;5.87;;;3.20;;
11054;SDS011;5580;50.106;8.702;2022-07-10T01:57:32;7.57;;;3.10;;
11054;SDS011;5580;50.106;8.702;2022-07-10T01:59:58;7.47;;;3.17;;
11054;SDS011;5580;50.106;8.702;2022-07-10T02:02:24;9.03;;;3.30;;
11054;SDS011;5580;50.106;8.702;2022-07-10T02:04:50;7.23;;;3.27;;
11054;SDS011;5580;50.106;8.702;2022-07-10T02:07:17;5.77;;;3.30;;
11054;SDS011;5580;50.106;8.702;2022-07-10T02:09:47;8.20;;;3.10;;
11054;SDS011;5580;50.106;8.702;2022-07-10T02:12:13;8.37;;;3.30;;
11054;SDS011;5580;50.106;8.702;2022-07-10T02:14:40;4.20;;;3.40;;
11054;SDS011;5580;50.106;8.702;2022-07-10T02:17:07;10.83;;;3.50;;
11054;SDS011;5580;50.106;8.702;2022-07-10T02:19:33;7.27;;;3.40;;
11054;SDS011;5580;50.106;8.702;2022-07-10T02:21:59;4.83;;;2.90;;
11054;SDS011;5580;50.106;8.702;2022-07-10T02:24:25;6.80;;;3.30;;
11054;SDS011;5580;50.106;8.702;2022-07-10T02:26:51;5.70;;;3.43;;
11054;SDS011;5580;50.106;8.702;2022-07-10T02:29:17;6.13;;;3.30;;
11054;SDS011;5580;50.106;8.702;2022-07-10T02:31:43;9.67;;;3.90;;
11054;SDS011;5580;50.106;8.702;2022-07-10T02:34:09;7.23;;;3.50;;
11054;SDS011;5580;50.106;8.702;2022-07-10T02:36:36;5.00;;;3.30;;
11054;SDS011;5580;50.106;8.702;2022-07-10T02:39:04;5.30;;;3.53;;
11054;SDS011;5580;50.106;8.702;2022-07-10T02:41:31;3.50;;;3.20;;
11054;SDS011;5580;50.106;8.702;2022-07-10T02:43:57;5.10;;;3.00;;
11054;SDS011;5580;50.106;8.702;2022-07-10T02:46:23;8.23;;;3.73;;
11054;SDS011;5580;50.106;8.702;2022-07-10T02:48:49;4.60;;;3.00;;
11054;SDS011;5580;50.106;8.702;2022-07-10T02:51:15;6.07;;;3.40;;
11054;SDS011;5580;50.106;8.702;2022-07-10T02:53:41;5.30;;;3.17;;
11054;SDS011;5580;50.106;8.702;2022-07-10T02:56:06;7.40;;;3.17;;
11054;SDS011;5580;50.106;8.702;2022-07-10T02:58:33;5.37;;;3.37;;
11054;SDS011;5580;50.106;8.702;2022-07-10T03:00:59;5.23;;;3.20;;
11054;SDS011;5580;50.106;8.702;2022-07-10T03:03:25;5.43;;;2.93;;
11054;SDS011;5580;50.106;8.702;2022-07-10T03:05:51;6.00;;;3.00;;
11054;SDS011;5580;50.106;8.702;2022-07-10T03:08:17;5.33;;;3.13;;
11054;SDS011;5580;50.106;8.702;2022-07-10T03:10:43;4.40;;;3.00;;
11054;SDS011;5580;50.106;8.702;2022-07-10T03:13:08;4.60;;;3.30;;
11054;SDS011;5580;50.106;8.702;2022-07-10T03:15:34;5.17;;;3.33;;
11054;SDS011;5580;50.106;8.702;2022-07-10T03:18:00;5.90;;;3.17;;
11054;SDS011;5580;50.106;8.702;2022-07-10T03:20:26;5.77;;;3.37;;
11054;SDS011;5580;50.106;8.702;2022-07-10T03:22:51;6.37;;;3.20;;
11054;SDS011;5580;50.106;8.702;2022-07-10T03:25:17;6.80;;;3.60;;
11054;SDS011;5580;50.106;8.702;2022-07-10T03:27:42;5.90;;;3.23;;
11054;SDS011;5580;50.106;8.702;2022-07-10T03:30:08;6.57;;;3.33;;
11054;SDS011;5580;50.106;8.702;2022-07-10T03:32:34;6.13;;;3.30;;
11054;SDS011;5580;50.106;8.702;2022-07-10T03:35:00;8.30;;;3.70;;
11054;SDS011;5580;50.106;8.702;2022-07-10T03:37:26;5.90;;;3.40;;
11054;SDS011;5580;50.106;8.702;2022-07-10T03:39:52;8.50;;;3.27;;
11054;SDS011;5580;50.106;8.702;2022-07-10T03:42:17;6.10;;;3.27;;
11054;SDS011;5580;50.106;8.702;2022-07-10T03:44:43;6.50;;;3.33;;
11054;SDS011;5580;50.106;8.702;2022-07-10T03:47:09;3.73;;;2.70;;
11054;SDS011;5580;50.106;8.702;2022-07-10T03:49:34;7.17;;;3.20;;
11054;SDS011;5580;50.106;8.702;2022-07-10T03:52:01;6.50;;;3.30;;
11054;SDS011;5580;50.106;8.702;2022-07-10T03:54:27;5.83;;;3.20;;
11054;SDS011;5580;50.106;8.702;2022-07-10T03:56:54;4.37;;;2.87;;
11054;SDS011;5580;50.106;8.702;2022-07-10T03:59:39;5.43;;;3.10;;
11054;SDS011;5580;50.106;8.702;2022-07-10T04:02:05;5.23;;;2.90;;
11054;SDS011;5580;50.106;8.702;2022-07-10T04:04:30;5.77;;;2.90;;
11054;SDS011;5580;50.106;8.702;2022-07-10T04:06:56;7.53;;;3.03;;
11054;SDS011;5580;50.106;8.702;2022-07-10T04:09:22;5.53;;;2.93;;
11054;SDS011;5580;50.106;8.702;2022-07-10T04:11:47;5.97;;;3.00;;
11054;SDS011;5580;50.106;8.702;2022-07-10T04:14:13;6.93;;;3.37;;
11054;SDS011;5580;50.106;8.702;2022-07-10T04:16:38;8.50;;;3.00;;
11054;SDS011;5580;50.106;8.702;2022-07-10T04:19:04;5.03;;;2.63;;
11054;SDS011;5580;50.106;8.702;2022-07-10T04:21:29;5.47;;;3.03;;
11054;SDS011;5580;50.106;8.702;2022-07-10T04:23:55;5.77;;;3.10;;
11054;SDS011;5580;50.106;8.702;2022-07-10T04:26:21;5.93;;;3.10;;
11054;SDS011;5580;50.106;8.702;2022-07-10T04:28:46;4.90;;;3.03;;
11054;SDS011;5580;50.106;8.702;2022-07-10T04:31:12;6.00;;;3.00;;
11054;SDS011;5580;50.106;8.702;2022-07-10T04:33:37;6.93;;;3.10;;
11054;SDS011;5580;50.106;8.702;2022-07-10T04:36:03;2.97;;;2.57;;
11054;SDS011;5580;50.106;8.702;2022-07-10T04:38:29;6.40;;;3.30;;
11054;SDS011;5580;50.106;8.702;2022-07-10T04:40:56;5.77;;;2.67;;
11054;SDS011;5580;50.106;8.702;2022-07-10T04:43:22;3.70;;;2.40;;
11054;SDS011;5580;50.106;8.702;2022-07-10T04:45:47;5.90;;;2.60;;
11054;SDS011;5580;50.106;8.702;2022-07-10T04:48:13;7.50;;;2.80;;
11054;SDS011;5580;50.106;8.702;2022-07-10T04:50:39;5.57;;;2.97;;
11054;SDS011;5580;50.106;8.702;2022-07-10T04:53:04;5.93;;;2.50;;
11054;SDS011;5580;50.106;8.702;2022-07-10T04:55:30;4.40;;;2.80;;
11054;SDS011;5580;50.106;8.702;2022-07-10T04:57:55;5.53;;;2.60;;
11054;SDS011;5580;50.106;8.702;2022-07-10T05:00:21;7.37;;;2.50;;
11054;SDS011;5580;50.106;8.702;2022-07-10T05:02:46;5.37;;;2.70;;
11054;SDS011;5580;50.106;8.702;2022-07-10T05:05:12;3.67;;;2.10;;
11054;SDS011;5580;50.106;8.702;2022-07-10T05:07:38;8.50;;;2.87;;
11054;SDS011;5580;50.106;8.702;2022-07-10T05:10:03;6.30;;;2.23;;
11054;SDS011;5580;50.106;8.702;2022-07-10T05:12:30;4.50;;;2.37;;
11054;SDS011;5580;50.106;8.702;2022-07-10T05:14:55;7.63;;;2.50;;
11054;SDS011;5580;50.106;8.702;2022-07-10T05:17:22;5.03;;;2.20;;
11054;SDS011;5580;50.106;8.702;2022-07-10T05:19:48;5.00;;;2.27;;
11054;SDS011;5580;50.106;8.702;2022-07-10T05:22:16;5.33;;;2.27;;
11054;SDS011;5580;50.106;8.702;2022-07-10T05:24:42;4.50;;;2.43;;
11054;SDS011;5580;50.106;8.702;2022-07-10T05:27:07;6.87;;;2.63;;
11054;SDS011;5580;50.106;8.702;2022-07-10T05:29:33;5.53;;;2.30;;
11054;SDS011;5580;50.106;8.702;2022-07-10T05:31:58;6.50;;;1.87;;
11054;SDS011;5580;50.106;8.702;2022-07-10T05:34:24;2.93;;;1.67;;
11054;SDS011;5580;50.106;8.702;2022-07-10T05:36:50;3.67;;;1.77;;
11054;SDS011;5580;50.106;8.702;2022-07-10T05:39:15;2.70;;;1.60;;
11054;SDS011;5580;50.106;8.702;2022-07-10T05:41:41;3.80;;;1.93;;
11054;SDS011;5580;50.106;8.702;2022-07-10T05:44:06;4.63;;;2.17;;
11054;SDS011;5580;50.106;8.702;2022-07-10T05:46:32;5.97;;;1.53;;
11054;SDS011;5580;50.106;8.702;2022-07-10T05:48:58;3.70;;;2.00;;
11054;SDS011;5580;50.106;8.702;2022-07-10T05:51:23;5.47;;;1.83;;
11054;SDS011;5580;50.106;8.702;2022-07-10T05:53:49;3.17;;;2.00;;
11054;SDS011;5580;50.106;8.702;2022-07-10T05:56:14;3.50;;;1.90;;
11054;SDS011;5580;50.106;8.702;2022-07-10T05:58:40;6.17;;;1.73;;
11054;SDS011;5580;50.106;8.702;2022-07-10T06:01:05;5.27;;;2.20;;
11054;SDS011;5580;50.106;8.702;2022-07-10T06:03:31;5.27;;;1.87;;
11054;SDS011;5580;50.106;8.702;2022-07-10T06:05:57;7.27;;;2.47;;
11054;SDS011;5580;50.106;8.702;2022-07-10T06:08:24;4.20;;;1.87;;
11054;SDS011;5580;50.106;8.702;2022-07-10T06:10:50;5.27;;;1.90;;
11054;SDS011;5580;50.106;8.702;2022-07-10T06:13:15;5.73;;;2.20;;
11054;SDS011;5580;50.106;8.702;2022-07-10T06:15:41;4.03;;;1.80;;
11054;SDS011;5580;50.106;8.702;2022-07-10T06:18:06;6.87;;;2.50;;
11054;SDS011;5580;50.106;8.702;2022-07-10T06:20:32;4.00;;;1.90;;
11054;SDS011;5580;50.106;8.702;2022-07-10T06:22:58;5.67;;;1.87;;
11054;SDS011;5580;50.106;8.702;2022-07-10T06:25:23;5.37;;;2.00;;
11054;SDS011;5580;50.106;8.702;2022-07-10T06:27:49;4.63;;;1.50;;
11054;SDS011;5580;50.106;8.702;2022-07-10T06:30:15;5.50;;;1.97;;
11054;SDS011;5580;50.106;8.702;2022-07-10T06:32:40;3.37;;;1.60;;
11054;SDS011;5580;50.106;8.702;2022-07-10T06:35:07;6.40;;;2.00;;
11054;SDS011;5580;50.106;8.702;2022-07-10T06:37:33;5.23;;;2.10;;
11054;SDS011;5580;50.106;8.702;2022-07-10T06:39:59;4.77;;;2.00;;
11054;SDS011;5580;50.106;8.702;2022-07-10T06:42:25;3.87;;;1.73;;
11054;SDS011;5580;50.106;8.702;2022-07-10T06:44:50;2.80;;;1.47;;
11054;SDS011;5580;50.106;8.702;2022-07-10T06:47:17;7.10;;;1.90;;
11054;SDS011;5580;50.106;8.702;2022-07-10T06:50:03;3.77;;;1.60;;
11054;SDS011;5580;50.106;8.702;2022-07-10T06:52:33;5.63;;;1.80;;
11054;SDS011;5580;50.106;8.702;2022-07-10T06:54:59;2.90;;;1.43;;
11054;SDS011;5580;50.106;8.702;2022-07-10T06:57:26;2.70;;;1.70;;
11054;SDS011;5580;50.106;8.702;2022-07-10T06:59:52;2.90;;;1.87;;
11054;SDS011;5580;50.106;8.702;2022-07-10T07:02:18;6.63;;;2.00;;
11054;SDS011;5580;50.106;8.702;2022-07-10T07:04:44;3.23;;;1.47;;
11054;SDS011;5580;50.106;8.702;2022-07-10T07:07:11;5.27;;;1.63;;
11054;SDS011;5580;50.106;8.702;2022-07-10T07:09:37;8.50;;;2.17;;
11054;SDS011;5580;50.106;8.702;2022-07-10T07:12:03;5.60;;;1.50;;
11054;SDS011;5580;50.106;8.702;2022-07-10T07:14:29;7.97;;;2.10;;
11054;SDS011;5580;50.106;8.702;2022-07-10T07:16:54;5.67;;;1.67;;
11054;SDS011;5580;50.106;8.702;2022-07-10T07:19:25;4.37;;;1.73;;
11054;SDS011;5580;50.106;8.702;2022-07-10T07:22:17;2.87;;;1.47;;
11054;SDS011;5580;50.106;8.702;2022-07-10T07:25:02;5.07;;;1.70;;
11054;SDS011;5580;50.106;8.702;2022-07-10T07:27:28;5.90;;;1.87;;
11054;SDS011;5580;50.106;8.702;2022-07-10T07:29:54;3.37;;;1.60;;
11054;SDS011;5580;50.106;8.702;2022-07-10T07:32:19;4.73;;;1.50;;
11054;SDS011;5580;50.106;8.702;2022-07-10T07:34:45;5.03;;;1.87;;
11054;SDS011;5580;50.106;8.702;2022-07-10T07:37:10;3.40;;;1.60;;
11054;SDS011;5580;50.106;8.702;2022-07-10T07:39:36;3.20;;;2.00;;
11054;SDS011;5580;50.106;8.702;2022-07-10T07:42:02;3.83;;;1.73;;
11054;SDS011;5580;50.106;8.702;2022-07-10T07:44:28;5.77;;;2.17;;
11054;SDS011;5580;50.106;8.702;2022-07-10T07:46:55;5.90;;;1.83;;
11054;SDS011;5580;50.106;8.702;2022-07-10T07:49:21;4.17;;;1.67;;
11054;SDS011;5580;50.106;8.702;2022-07-10T07:51:46;5.23;;;1.80;;
11054;SDS011;5580;50.106;8.702;2022-07-10T07:54:13;3.77;;;2.00;;
11054;SDS011;5580;50.106;8.702;2022-07-10T07:56:40;5.93;;;1.80;;
11054;SDS011;5580;50.106;8.702;2022-07-10T07:59:06;2.93;;;1.70;;
11054;SDS011;5580;50.106;8.702;2022-07-10T08:01:31;4.07;;;1.47;;
11054;SDS011;5580;50.106;8.702;2022-07-10T08:03:57;4.83;;;2.20;;
11054;SDS011;5580;50.106;8.702;2022-07-10T08:06:22;6.67;;;2.20;;
11054;SDS011;5580;50.106;8.702;2022-07-10T08:08:48;3.73;;;1.47;;
11054;SDS011;5580;50.106;8.702;2022-07-10T08:11:14;6.27;;;1.97;;
11054;SDS011;5580;50.106;8.702;2022-07-10T08:13:39;5.60;;;1.90;;
11054;SDS011;5580;50.106;8.702;2022-07-10T08:16:05;6.47;;;2.17;;
11054;SDS011;5580;50.106;8.702;2022-07-10T08:18:31;4.67;;;2.83;;
11054;SDS011;5580;50.106;8.702;2022-07-10T08:20:56;5.67;;;2.20;;
11054;SDS011;5580;50.106;8.702;2022-07-10T08:23:22;7.23;;;2.03;;
11054;SDS011;5580;50.106;8.702;2022-07-10T08:25:47;4.90;;;1.87;;
11054;SDS011;5580;50.106;8.702;2022-07-10T08:28:13;4.33;;;1.97;;
11054;SDS011;5580;50.106;8.702;2022-07-10T08:30:39;5.47;;;2.10;;
11054;SDS011;5580;50.106;8.702;2022-07-10T08:33:04;5.90;;;2.40;;
11054;SDS011;5580;50.106;8.702;2022-07-10T08:35:30;5.47;;;2.27;;
11054;SDS011;5580;50.106;8.702;2022-07-10T08:37:56;9.13;;;2.17;;
11054;SDS011;5580;50.106;8.702;2022-07-10T08:40:22;8.17;;;2.13;;
11054;SDS011;5580;50.106;8.702;2022-07-10T08:42:47;3.77;;;1.60;;
11054;SDS011;5580;50.106;8.702;2022-07-10T08:45:13;6.53;;;2.13;;
11054;SDS011;5580;50.106;8.702;2022-07-10T08:47:39;5.80;;;2.23;;
11054;SDS011;5580;50.106;8.702;2022-07-10T08:50:15;6.73;;;2.20;;
11054;SDS011;5580;50.106;8.702;2022-07-10T08:55:45;5.07;;;2.17;;
11054;SDS011;5580;50.106;8.702;2022-07-10T08:58:12;6.10;;;2.13;;
11054;SDS011;5580;50.106;8.702;2022-07-10T09:00:38;7.17;;;2.03;;
11054;SDS011;5580;50.106;8.702;2022-07-10T09:03:03;4.73;;;1.63;;
11054;SDS011;5580;50.106;8.702;2022-07-10T09:05:29;4.90;;;1.93;;
11054;SDS011;5580;50.106;8.702;2022-07-10T09:07:55;4.77;;;1.70;;
11054;SDS011;5580;50.106;8.702;2022-07-10T09:10:23;5.63;;;2.37;;
11054;SDS011;5580;50.106;8.702;2022-07-10T09:15:29;6.90;;;1.90;;
11054;SDS011;5580;50.106;8.702;2022-07-10T09:17:58;6.67;;;2.30;;
11054;SDS011;5580;50.106;8.702;2022-07-10T09:25:43;4.27;;;1.90;;
11054;SDS011;5580;50.106;8.702;2022-07-10T09:28:13;6.20;;;2.20;;
11054;SDS011;5580;50.106;8.702;2022-07-10T09:30:41;4.97;;;2.27;;
11054;SDS011;5580;50.106;8.702;2022-07-10T09:33:23;4.83;;;2.13;;
11054;SDS011;5580;50.106;8.702;2022-07-10T09:41:14;6.80;;;2.30;;
11054;SDS011;5580;50.106;8.702;2022-07-10T09:43:44;4.17;;;2.07;;
11054;SDS011;5580;50.106;8.702;2022-07-10T09:46:14;4.73;;;1.90;;
11054;SDS011;5580;50.106;8.702;2022-07-10T09:48:40;7.50;;;2.33;;
11054;SDS011;5580;50.106;8.702;2022-07-10T09:51:07;7.00;;;2.07;;
11054;SDS011;5580;50.106;8.702;2022-07-10T09:53:36;8.17;;;2.43;;
11054;SDS011;5580;50.106;8.702;2022-07-10T09:56:04;3.47;;;2.13;;
11054;SDS011;5580;50.106;8.702;2022-07-10T09:58:33;6.13;;;2.67;;
11054;SDS011;5580;50.106;8.702;2022-07-10T10:01:05;6.97;;;2.10;;
11054;SDS011;5580;50.106;8.702;2022-07-10T10:03:36;6.10;;;2.47;;
11054;SDS011;5580;50.106;8.702;2022-07-10T10:06:03;6.60;;;2.30;;
11054;SDS011;5580;50.106;8.702;2022-07-10T10:08:54;5.80;;;2.40;;
11054;SDS011;5580;50.106;8.702;2022-07-10T10:11:28;6.33;;;2.63;;
11054;SDS011;5580;50.106;8.702;2022-07-10T10:13:56;6.90;;;2.60;;
11054;SDS011;5580;50.106;8.702;2022-07-10T10:16:23;5.57;;;2.57;;
11054;SDS011;5580;50.106;8.702;2022-07-10T10:18:52;4.43;;;2.27;;
11054;SDS011;5580;50.106;8.702;2022-07-10T10:21:37;4.70;;;2.57;;
11054;SDS011;5580;50.106;8.702;2022-07-10T10:24:04;4.53;;;2.30;;
11054;SDS011;5580;50.106;8.702;2022-07-10T10:26:31;5.07;;;2.33;;
11054;SDS011;5580;50.106;8.702;2022-07-10T10:28:58;5.70;;;2.70;;
11054;SDS011;5580;50.106;8.702;2022-07-10T10:31:29;4.40;;;2.40;;
11054;SDS011;5580;50.106;8.702;2022-07-10T10:33:55;6.13;;;2.70;;
11054;SDS011;5580;50.106;8.702;2022-07-10T10:39:16;4.63;;;2.50;;
11054;SDS011;5580;50.106;8.702;2022-07-10T10:41:52;4.40;;;2.77;;
11054;SDS011;5580;50.106;8.702;2022-07-10T10:44:19;5.37;;;2.80;;
11054;SDS011;5580;50.106;8.702;2022-07-10T10:49:15;7.97;;;2.93;;
11054;SDS011;5580;50.106;8.702;2022-07-10T10:51:59;5.83;;;2.87;;
11054;SDS011;5580;50.106;8.702;2022-07-10T10:54:27;4.47;;;2.50;;
11054;SDS011;5580;50.106;8.702;2022-07-10T10:59:49;5.20;;;2.43;;
11054;SDS011;5580;50.106;8.702;2022-07-10T11:02:29;6.93;;;3.00;;
11054;SDS011;5580;50.106;8.702;2022-07-10T11:07:54;7.33;;;2.70;;
11054;SDS011;5580;50.106;8.702;2022-07-10T11:12:59;6.70;;;3.20;;
11054;SDS011;5580;50.106;8.702;2022-07-10T11:15:25;9.20;;;3.07;;
11054;SDS011;5580;50.106;8.702;2022-07-10T11:17:52;8.57;;;3.00;;
11054;SDS011;5580;50.106;8.702;2022-07-10T11:20:18;5.67;;;2.77;;
11054;SDS011;5580;50.106;8.702;2022-07-10T11:25:53;6.67;;;2.63;;
11054;SDS011;5580;50.106;8.702;2022-07-10T11:28:51;4.50;;;2.57;;
11054;SDS011;5580;50.106;8.702;2022-07-10T11:31:19;5.43;;;2.50;;
11054;SDS011;5580;50.106;8.702;2022-07-10T11:33:47;5.37;;;2.90;;
11054;SDS011;5580;50.106;8.702;2022-07-10T11:38:44;9.63;;;3.00;;
11054;SDS011;5580;50.106;8.702;2022-07-10T11:41:16;6.90;;;3.00;;
11054;SDS011;5580;50.106;8.702;2022-07-10T11:43:48;8.50;;;3.17;;
11054;SDS011;5580;50.106;8.702;2022-07-10T11:46:19;7.77;;;2.80;;
11054;SDS011;5580;50.106;8.702;2022-07-10T11:48:46;6.10;;;2.80;;
11054;SDS011;5580;50.106;8.702;2022-07-10T11:51:18;6.87;;;2.53;;
11054;SDS011;5580;50.106;8.702;2022-07-10T11:54:04;9.63;;;2.90;;
11054;SDS011;5580;50.106;8.702;2022-07-10T11:56:35;6.90;;;2.70;;
11054;SDS011;5580;50.106;8.702;2022-07-10T11:59:06;5.17;;;2.60;;
11054;SDS011;5580;50.106;8.702;2022-07-10T12:04:12;5.83;;;2.53;;
11054;SDS011;5580;50.106;8.702;2022-07-10T12:06:40;5.80;;;2.97;;
11054;SDS011;5580;50.106;8.702;2022-07-10T12:09:08;3.50;;;2.43;;
11054;SDS011;5580;50.106;8.702;2022-07-10T12:11:35;7.87;;;2.60;;
11054;SDS011;5580;50.106;8.702;2022-07-10T12:14:35;8.30;;;2.87;;
11054;SDS011;5580;50.106;8.702;2022-07-10T12:16:54;8.23;;;2.67;;
11054;SDS011;5580;50.106;8.702;2022-07-10T12:19:27;5.73;;;2.60;;
11054;SDS011;5580;50.106;8.702;2022-07-10T12:21:58;6.50;;;2.57;;
11054;SDS011;5580;50.106;8.702;2022-07-10T12:24:25;3.87;;;2.53;;
11054;SDS011;5580;50.106;8.702;2022-07-10T12:26:51;4.63;;;2.80;;
11054;SDS011;5580;50.106;8.702;2022-07-10T12:31:46;4.30;;;2.70;;
11054;SDS011;5580;50.106;8.702;2022-07-10T12:34:14;4.97;;;2.53;;
11054;SDS011;5580;50.106;8.702;2022-07-10T12:36:52;4.80;;;2.27;;
11054;SDS011;5580;50.106;8.702;2022-07-10T12:39:19;4.23;;;2.37;;
11054;SDS011;5580;50.106;8.702;2022-07-10T12:42:06;7.07;;;2.40;;
11054;SDS011;5580;50.106;8.702;2022-07-10T12:44:36;5.37;;;2.33;;
11054;SDS011;5580;50.106;8.702;2022-07-10T12:47:12;5.60;;;2.70;;
11054;SDS011;5580;50.106;8.702;2022-07-10T12:52:23;7.87;;;2.70;;
11054;SDS011;5580;50.106;8.702;2022-07-10T13:00:15;5.60;;;2.27;;
11054;SDS011;5580;50.106;8.702;2022-07-10T13:02:49;7.33;;;3.03;;
11054;SDS011;5580;50.106;8.702;2022-07-10T13:05:29;4.40;;;2.57;;
11054;SDS011;5580;50.106;8.702;2022-07-10T13:08:05;5.87;;;2.20;;
11054;SDS011;5580;50.106;8.702;2022-07-10T13:10:41;5.03;;;2.30;;
11054;SDS011;5580;50.106;8.702;2022-07-10T13:13:09;5.17;;;2.20;;
11054;SDS011;5580;50.106;8.702;2022-07-10T13:15:35;6.60;;;2.27;;
11054;SDS011;5580;50.106;8.702;2022-07-10T13:18:15;4.47;;;2.00;;
11054;SDS011;5580;50.106;8.702;2022-07-10T13:20:42;3.57;;;2.03;;
11054;SDS011;5580;50.106;8.702;2022-07-10T13:23:11;5.40;;;2.80;;
11054;SDS011;5580;50.106;8.702;2022-07-10T13:25:37;4.27;;;2.20;;
11054;SDS011;5580;50.106;8.702;2022-07-10T13:28:04;5.30;;;2.17;;
11054;SDS011;5580;50.106;8.702;2022-07-10T13:30:30;5.57;;;2.50;;
11054;SDS011;5580;50.106;8.702;2022-07-10T13:32:56;5.30;;;2.30;;
11054;SDS011;5580;50.106;8.702;2022-07-10T13:35:22;5.67;;;2.53;;
11054;SDS011;5580;50.106;8.702;2022-07-10T13:37:48;5.53;;;2.47;;
11054;SDS011;5580;50.106;8.702;2022-07-10T13:40:14;4.13;;;2.80;;
11054;SDS011;5580;50.106;8.702;2022-07-10T13:42:39;6.90;;;2.57;;
11054;SDS011;5580;50.106;8.702;2022-07-10T13:45:05;7.07;;;2.80;;
11054;SDS011;5580;50.106;8.702;2022-07-10T13:47:33;4.87;;;2.53;;
11054;SDS011;5580;50.106;8.702;2022-07-10T13:49:58;6.43;;;2.80;;
11054;SDS011;5580;50.106;8.702;2022-07-10T13:52:24;3.47;;;2.03;;
11054;SDS011;5580;50.106;8.702;2022-07-10T13:54:50;6.57;;;2.67;;
11054;SDS011;5580;50.106;8.702;2022-07-10T13:57:15;4.37;;;2.80;;
11054;SDS011;5580;50.106;8.702;2022-07-10T13:59:41;4.43;;;2.10;;
11054;SDS011;5580;50.106;8.702;2022-07-10T14:02:07;4.70;;;2.20;;
11054;SDS011;5580;50.106;8.702;2022-07-10T14:04:32;3.97;;;1.97;;
11054;SDS011;5580;50.106;8.702;2022-07-10T14:06:58;5.43;;;2.10;;
11054;SDS011;5580;50.106;8.702;2022-07-10T14:09:24;3.27;;;2.30;;
11054;SDS011;5580;50.106;8.702;2022-07-10T14:11:50;4.17;;;1.77;;
11054;SDS011;5580;50.106;8.702;2022-07-10T14:14:15;5.47;;;2.70;;
11054;SDS011;5580;50.106;8.702;2022-07-10T14:16:41;4.20;;;2.37;;
11054;SDS011;5580;50.106;8.702;2022-07-10T14:19:08;7.93;;;2.83;;
11054;SDS011;5580;50.106;8.702;2022-07-10T14:21:34;4.97;;;2.70;;
11054;SDS011;5580;50.106;8.702;2022-07-10T14:24:01;3.70;;;2.23;;
11054;SDS011;5580;50.106;8.702;2022-07-10T14:26:27;4.53;;;1.93;;
11054;SDS011;5580;50.106;8.702;2022-07-10T14:28:53;5.80;;;1.93;;
11054;SDS011;5580;50.106;8.702;2022-07-10T14:31:20;3.43;;;2.13;;
11054;SDS011;5580;50.106;8.702;2022-07-10T14:33:45;4.13;;;2.43;;
11054;SDS011;5580;50.106;8.702;2022-07-10T14:36:11;3.33;;;2.27;;
11054;SDS011;5580;50.106;8.702;2022-07-10T14:38:37;3.73;;;2.00;;
11054;SDS011;5580;50.106;8.702;2022-07-10T14:41:03;2.03;;;1.60;;
11054;SDS011;5580;50.106;8.702;2022-07-10T14:43:30;4.63;;;2.23;;
11054;SDS011;5580;50.106;8.702;2022-07-10T14:45:58;6.37;;;1.90;;
11054;SDS011;5580;50.106;8.702;2022-07-10T14:48:25;6.00;;;2.20;;
11054;SDS011;5580;50.106;8.702;2022-07-10T14:50:51;4.73;;;2.40;;
11054;SDS011;5580;50.106;8.702;2022-07-10T14:53:16;3.17;;;2.37;;
11054;SDS011;5580;50.106;8.702;2022-07-10T14:55:42;5.20;;;2.47;;
11054;SDS011;5580;50.106;8.702;2022-07-10T14:58:08;2.60;;;1.83;;
11054;SDS011;5580;50.106;8.702;2022-07-10T15:00:33;3.63;;;2.27;;
11054;SDS011;5580;50.106;8.702;2022-07-10T15:02:59;3.10;;;1.87;;
11054;SDS011;5580;50.106;8.702;2022-07-10T15:05:25;3.23;;;1.83;;
11054;SDS011;5580;50.106;8.702;2022-07-10T15:07:51;5.77;;;2.23;;
11054;SDS011;5580;50.106;8.702;2022-07-10T15:10:16;3.97;;;2.30;;
11054;SDS011;5580;50.106;8.702;2022-07-10T15:12:44;3.33;;;1.63;;
11054;SDS011;5580;50.106;8.702;2022-07-10T15:15:10;3.13;;;1.60;;
11054;SDS011;5580;50.106;8.702;2022-07-10T15:17:36;3.07;;;2.00;;
11054;SDS011;5580;50.106;8.702;2022-07-10T15:20:04;5.37;;;1.97;;
11054;SDS011;5580;50.106;8.702;2022-07-10T15:22:30;2.53;;;1.37;;
11054;SDS011;5580;50.106;8.702;2022-07-10T15:24:57;5.10;;;2.33;;
11054;SDS011;5580;50.106;8.702;2022-07-10T15:27:23;2.47;;;1.90;;
11054;SDS011;5580;50.106;8.702;2022-07-10T15:29:49;2.50;;;1.50;;
11054;SDS011;5580;50.106;8.702;2022-07-10T15:32:17;2.00;;;1.40;;
11054;SDS011;5580;50.106;8.702;2022-07-10T15:34:43;1.40;;;1.30;;
11054;SDS011;5580;50.106;8.702;2022-07-10T15:37:08;3.87;;;1.70;;
11054;SDS011;5580;50.106;8.702;2022-07-10T15:39:34;3.57;;;1.70;;
11054;SDS011;5580;50.106;8.702;2022-07-10T15:42:15;2.63;;;1.67;;
11054;SDS011;5580;50.106;8.702;2022-07-10T15:44:41;1.90;;;1.20;;
11054;SDS011;5580;50.106;8.702;2022-07-10T15:47:06;2.30;;;1.70;;
11054;SDS011;5580;50.106;8.702;2022-07-10T15:49:32;3.27;;;2.37;;